sensor_id;sensor_type;location;lat;lon;timestamp;pressure;altitude;pressure_sealevel;temperature;humidity
11830;BME280;5972;42.134;24.718;2022-07-29T00:00:10;99645.13;;;24.82;100.00
11830;BME280;5972;42.134;24.718;2022-07-29T00:02:37;99637.56;;;24.70;100.00
11830;BME280;5972;42.134;24.718;2022-07-29T00:05:05;99633.56;;;24.71;100.00
11830;BME280;5972;42.134;24.718;2022-07-29T00:07:35;99642.56;;;24.75;100.00
11830;BME280;5972;42.134;24.718;2022-07-29T00:10:02;99638.44;;;24.67;100.00
11830;BME280;5972;42.134;24.718;2022-07-29T00:12:29;99643.00;;;24.74;100.00
11830;BME280;5972;42.134;24.718;2022-07-29T00:14:56;99638.09;;;24.65;100.00
11830;BME280;5972;42.134;24.718;2022-07-29T00:17:24;99622.81;;;24.61;100.00
11830;BME280;5972;42.134;24.718;2022-07-29T00:19:52;99651.50;;;24.67;100.00
11830;BME280;5972;42.134;24.718;2022-07-29T00:22:20;99643.22;;;24.51;100.00
11830;BME280;5972;42.134;24.718;2022-07-29T00:24:48;99643.41;;;24.43;100.00
11830;BME280;5972;42.134;24.718;2022-07-29T00:27:15;99648.25;;;24.39;100.00
11830;BME280;5972;42.134;24.718;2022-07-29T00:29:42;99649.38;;;24.42;100.00
11830;BME280;5972;42.134;24.718;2022-07-29T00:32:09;99643.50;;;24.40;100.00
11830;BME280;5972;42.134;24.718;2022-07-29T00:34:36;99647.06;;;24.40;100.00
11830;BME280;5972;42.134;24.718;2022-07-29T00:37:20;99641.69;;;24.33;100.00
11830;BME280;5972;42.134;24.718;2022-07-29T00:39:48;99630.28;;;24.31;100.00
11830;BME280;5972;42.134;24.718;2022-07-29T00:42:16;99635.81;;;24.31;100.00
11830;BME280;5972;42.134;24.718;2022-07-29T00:44:42;99646.19;;;24.27;100.00
11830;BME280;5972;42.134;24.718;2022-07-29T00:47:10;99644.22;;;24.28;100.00
11830;BME280;5972;42.134;24.718;2022-07-29T00:49:38;99621.19;;;24.15;100.00
11830;BME280;5972;42.134;24.718;2022-07-29T00:52:06;99655.59;;;24.30;100.00
11830;BME280;5972;42.134;24.718;2022-07-29T00:54:33;99648.78;;;24.34;100.00
11830;BME280;5972;42.134;24.718;2022-07-29T00:57:02;99645.31;;;24.30;100.00
11830;BME280;5972;42.134;24.718;2022-07-29T00:59:29;99624.50;;;24.26;100.00
11830;BME280;5972;42.134;24.718;2022-07-29T01:01:56;99649.13;;;24.36;100.00
11830;BME280;5972;42.134;24.718;2022-07-29T01:04:23;99640.56;;;24.31;100.00
11830;BME280;5972;42.134;24.718;2022-07-29T01:06:50;99620.50;;;24.11;100.00
11830;BME280;5972;42.134;24.718;2022-07-29T01:09:18;99649.47;;;24.38;100.00
11830;BME280;5972;42.134;24.718;2022-07-29T01:11:46;99653.34;;;24.41;100.00
11830;BME280;5972;42.134;24.718;2022-07-29T01:14:15;99650.06;;;24.46;100.00
11830;BME280;5972;42.134;24.718;2022-07-29T01:16:48;99649.53;;;24.51;100.00
11830;BME280;5972;42.134;24.718;2022-07-29T01:19:33;99658.41;;;24.59;100.00
11830;BME280;5972;42.134;24.718;2022-07-29T01:22:23;99654.00;;;24.61;100.00
11830;BME280;5972;42.134;24.718;2022-07-29T01:25:10;99660.47;;;24.71;100.00
11830;BME280;5972;42.134;24.718;2022-07-29T01:27:47;99661.16;;;24.75;100.00
11830;BME280;5972;42.134;24.718;2022-07-29T01:30:21;99647.41;;;24.71;100.00
11830;BME280;5972;42.134;24.718;2022-07-29T01:32:53;99657.94;;;24.76;100.00
11830;BME280;5972;42.134;24.718;2022-07-29T01:35:24;99630.59;;;24.50;100.00
11830;BME280;5972;42.134;24.718;2022-07-29T01:37:55;99654.53;;;24.56;100.00
11830;BME280;5972;42.134;24.718;2022-07-29T01:40:27;99635.91;;;24.28;100.00
11830;BME280;5972;42.134;24.718;2022-07-29T01:42:57;99629.59;;;24.27;100.00
11830;BME280;5972;42.134;24.718;2022-07-29T01:45:36;99647.13;;;24.37;100.00
11830;BME280;5972;42.134;24.718;2022-07-29T01:48:11;99646.81;;;24.35;100.00
11830;BME280;5972;42.134;24.718;2022-07-29T01:50:45;99640.31;;;24.25;100.00
11830;BME280;5972;42.134;24.718;2022-07-29T01:53:16;99645.84;;;24.25;100.00
11830;BME280;5972;42.134;24.718;2022-07-29T01:55:45;99635.91;;;24.28;100.00
11830;BME280;5972;42.134;24.718;2022-07-29T01:58:15;99626.72;;;24.31;100.00
11830;BME280;5972;42.134;24.718;2022-07-29T02:00:46;99648.34;;;24.36;100.00
11830;BME280;5972;42.134;24.718;2022-07-29T02:03:17;99655.00;;;24.22;100.00
11830;BME280;5972;42.134;24.718;2022-07-29T02:05:46;99643.66;;;24.17;100.00
11830;BME280;5972;42.134;24.718;2022-07-29T02:08:15;99647.28;;;24.14;100.00
11830;BME280;5972;42.134;24.718;2022-07-29T02:10:44;99647.78;;;24.09;100.00
11830;BME280;5972;42.134;24.718;2022-07-29T02:13:12;99643.72;;;23.97;100.00
11830;BME280;5972;42.134;24.718;2022-07-29T02:15:42;99647.19;;;23.85;100.00
11830;BME280;5972;42.134;24.718;2022-07-29T02:18:14;99642.88;;;23.84;100.00
11830;BME280;5972;42.134;24.718;2022-07-29T02:20:45;99636.22;;;23.81;100.00
11830;BME280;5972;42.134;24.718;2022-07-29T02:23:15;99637.59;;;23.73;100.00
11830;BME280;5972;42.134;24.718;2022-07-29T02:25:44;99640.91;;;23.48;100.00
11830;BME280;5972;42.134;24.718;2022-07-29T02:28:11;99640.25;;;23.41;100.00
11830;BME280;5972;42.134;24.718;2022-07-29T02:30:42;99640.56;;;23.27;100.00
11830;BME280;5972;42.134;24.718;2022-07-29T02:33:14;99622.50;;;23.02;100.00
11830;BME280;5972;42.134;24.718;2022-07-29T02:35:46;99631.50;;;22.87;100.00
11830;BME280;5972;42.134;24.718;2022-07-29T02:38:15;99636.41;;;22.79;100.00
11830;BME280;5972;42.134;24.718;2022-07-29T02:41:01;99642.81;;;22.72;100.00
11830;BME280;5972;42.134;24.718;2022-07-29T02:43:30;99638.09;;;22.73;100.00
11830;BME280;5972;42.134;24.718;2022-07-29T02:45:58;99633.50;;;22.63;100.00
11830;BME280;5972;42.134;24.718;2022-07-29T02:48:36;99641.91;;;22.79;100.00
11830;BME280;5972;42.134;24.718;2022-07-29T02:51:07;99635.81;;;22.88;100.00
11830;BME280;5972;42.134;24.718;2022-07-29T02:53:38;99629.66;;;22.80;100.00
11830;BME280;5972;42.134;24.718;2022-07-29T02:56:11;99636.53;;;22.92;100.00
11830;BME280;5972;42.134;24.718;2022-07-29T02:58:41;99640.44;;;22.94;100.00
11830;BME280;5972;42.134;24.718;2022-07-29T03:01:20;99636.81;;;22.97;100.00
11830;BME280;5972;42.134;24.718;2022-07-29T03:03:51;99635.41;;;22.89;100.00
11830;BME280;5972;42.134;24.718;2022-07-29T03:06:20;99621.53;;;22.93;100.00
11830;BME280;5972;42.134;24.718;2022-07-29T03:08:49;99641.13;;;22.98;100.00
11830;BME280;5972;42.134;24.718;2022-07-29T03:11:17;99643.53;;;22.96;100.00
11830;BME280;5972;42.134;24.718;2022-07-29T03:13:45;99646.66;;;22.98;100.00
11830;BME280;5972;42.134;24.718;2022-07-29T03:16:12;99639.06;;;23.02;100.00
11830;BME280;5972;42.134;24.718;2022-07-29T03:18:40;99645.03;;;23.01;100.00
11830;BME280;5972;42.134;24.718;2022-07-29T03:21:09;99650.84;;;23.06;100.00
11830;BME280;5972;42.134;24.718;2022-07-29T03:23:36;99655.72;;;22.99;100.00
11830;BME280;5972;42.134;24.718;2022-07-29T03:26:02;99654.84;;;23.02;100.00
11830;BME280;5972;42.134;24.718;2022-07-29T03:28:29;99627.97;;;22.86;100.00
11830;BME280;5972;42.134;24.718;2022-07-29T03:30:56;99662.44;;;22.98;100.00
11830;BME280;5972;42.134;24.718;2022-07-29T03:33:23;99663.28;;;22.95;100.00
11830;BME280;5972;42.134;24.718;2022-07-29T03:35:50;99663.03;;;22.86;100.00
11830;BME280;5972;42.134;24.718;2022-07-29T03:38:19;99665.56;;;23.00;100.00
11830;BME280;5972;42.134;24.718;2022-07-29T03:40:48;99665.34;;;23.10;100.00
11830;BME280;5972;42.134;24.718;2022-07-29T03:43:17;99676.63;;;22.96;100.00
11830;BME280;5972;42.134;24.718;2022-07-29T03:45:47;99672.56;;;23.04;100.00
11830;BME280;5972;42.134;24.718;2022-07-29T03:48:18;99665.25;;;23.14;100.00
11830;BME280;5972;42.134;24.718;2022-07-29T03:50:46;99673.47;;;23.17;100.00
11830;BME280;5972;42.134;24.718;2022-07-29T03:53:13;99666.31;;;23.20;100.00
11830;BME280;5972;42.134;24.718;2022-07-29T03:55:43;99665.91;;;23.21;100.00
11830;BME280;5972;42.134;24.718;2022-07-29T03:58:12;99672.41;;;23.31;100.00
11830;BME280;5972;42.134;24.718;2022-07-29T04:00:40;99672.25;;;23.58;100.00
11830;BME280;5972;42.134;24.718;2022-07-29T04:03:08;99681.22;;;23.46;100.00
11830;BME280;5972;42.134;24.718;2022-07-29T04:05:35;99682.03;;;23.63;100.00
11830;BME280;5972;42.134;24.718;2022-07-29T04:08:02;99682.50;;;23.77;100.00
11830;BME280;5972;42.134;24.718;2022-07-29T04:10:29;99684.59;;;23.89;100.00
11830;BME280;5972;42.134;24.718;2022-07-29T04:12:58;99688.84;;;24.10;100.00
11830;BME280;5972;42.134;24.718;2022-07-29T04:15:25;99678.44;;;24.34;100.00
11830;BME280;5972;42.134;24.718;2022-07-29T04:17:54;99687.50;;;24.34;100.00
11830;BME280;5972;42.134;24.718;2022-07-29T04:20:20;99683.56;;;24.64;100.00
11830;BME280;5972;42.134;24.718;2022-07-29T04:22:47;99678.53;;;24.75;100.00
11830;BME280;5972;42.134;24.718;2022-07-29T04:25:14;99684.25;;;25.13;100.00
11830;BME280;5972;42.134;24.718;2022-07-29T04:27:41;99684.06;;;26.00;100.00
11830;BME280;5972;42.134;24.718;2022-07-29T04:30:23;99666.41;;;26.79;93.04
11830;BME280;5972;42.134;24.718;2022-07-29T04:32:50;99685.44;;;27.24;89.52
11830;BME280;5972;42.134;24.718;2022-07-29T04:35:17;99686.09;;;28.21;79.06
11830;BME280;5972;42.134;24.718;2022-07-29T04:37:43;99688.41;;;28.89;71.62
11830;BME280;5972;42.134;24.718;2022-07-29T04:40:11;99678.31;;;29.10;66.48
11830;BME280;5972;42.134;24.718;2022-07-29T04:42:38;99688.22;;;29.90;60.90
11830;BME280;5972;42.134;24.718;2022-07-29T04:45:06;99683.75;;;30.49;56.88
11830;BME280;5972;42.134;24.718;2022-07-29T04:47:34;99681.25;;;31.13;53.45
11830;BME280;5972;42.134;24.718;2022-07-29T04:50:01;99692.25;;;31.61;51.01
11830;BME280;5972;42.134;24.718;2022-07-29T04:52:28;99697.88;;;32.25;48.21
11830;BME280;5972;42.134;24.718;2022-07-29T04:54:55;99671.28;;;32.35;46.91
11830;BME280;5972;42.134;24.718;2022-07-29T04:57:22;99695.22;;;32.97;46.24
11830;BME280;5972;42.134;24.718;2022-07-29T04:59:49;99683.09;;;33.06;45.35
11830;BME280;5972;42.134;24.718;2022-07-29T05:02:15;99705.72;;;33.48;44.61
11830;BME280;5972;42.134;24.718;2022-07-29T05:04:44;99663.16;;;33.81;43.87
11830;BME280;5972;42.134;24.718;2022-07-29T05:07:10;99707.97;;;34.38;42.55
11830;BME280;5972;42.134;24.718;2022-07-29T05:09:37;99702.81;;;34.31;42.85
11830;BME280;5972;42.134;24.718;2022-07-29T05:12:05;99687.09;;;34.13;42.64
11830;BME280;5972;42.134;24.718;2022-07-29T05:14:32;99706.81;;;35.32;40.43
11830;BME280;5972;42.134;24.718;2022-07-29T05:16:59;99708.38;;;35.61;40.04
11830;BME280;5972;42.134;24.718;2022-07-29T05:19:26;99714.34;;;34.92;40.33
11830;BME280;5972;42.134;24.718;2022-07-29T05:21:54;99705.53;;;35.38;38.96
11830;BME280;5972;42.134;24.718;2022-07-29T05:24:21;99714.72;;;36.06;38.41
11830;BME280;5972;42.134;24.718;2022-07-29T05:26:47;99712.69;;;36.12;37.04
11830;BME280;5972;42.134;24.718;2022-07-29T05:29:14;99719.31;;;37.11;35.64
11830;BME280;5972;42.134;24.718;2022-07-29T05:31:41;99713.41;;;36.40;36.24
11830;BME280;5972;42.134;24.718;2022-07-29T05:34:08;99714.44;;;37.06;35.24
11830;BME280;5972;42.134;24.718;2022-07-29T05:36:35;99704.94;;;36.46;35.26
11830;BME280;5972;42.134;24.718;2022-07-29T05:39:03;99717.84;;;37.75;33.70
11830;BME280;5972;42.134;24.718;2022-07-29T05:41:31;99695.81;;;37.68;33.20
11830;BME280;5972;42.134;24.718;2022-07-29T05:43:58;99720.19;;;38.01;33.05
11830;BME280;5972;42.134;24.718;2022-07-29T05:46:25;99704.97;;;38.10;32.76
11830;BME280;5972;42.134;24.718;2022-07-29T05:48:52;99728.16;;;38.03;33.19
11830;BME280;5972;42.134;24.718;2022-07-29T05:51:21;99728.34;;;38.59;31.97
11830;BME280;5972;42.134;24.718;2022-07-29T05:53:48;99737.69;;;38.24;32.18
11830;BME280;5972;42.134;24.718;2022-07-29T05:56:16;99737.47;;;38.46;31.74
11830;BME280;5972;42.134;24.718;2022-07-29T05:58:43;99738.50;;;39.11;31.49
11830;BME280;5972;42.134;24.718;2022-07-29T06:01:09;99737.34;;;39.88;30.29
11830;BME280;5972;42.134;24.718;2022-07-29T06:03:36;99744.94;;;40.52;30.00
11830;BME280;5972;42.134;24.718;2022-07-29T06:06:04;99737.56;;;41.43;28.39
11830;BME280;5972;42.134;24.718;2022-07-29T06:08:32;99735.34;;;41.62;28.02
11830;BME280;5972;42.134;24.718;2022-07-29T06:11:00;99732.13;;;41.45;28.09
11830;BME280;5972;42.134;24.718;2022-07-29T06:13:28;99741.28;;;41.17;28.19
11830;BME280;5972;42.134;24.718;2022-07-29T06:15:55;99731.94;;;41.30;27.99
11830;BME280;5972;42.134;24.718;2022-07-29T06:18:22;99738.22;;;41.70;27.67
11830;BME280;5972;42.134;24.718;2022-07-29T06:20:50;99714.56;;;39.94;29.64
11830;BME280;5972;42.134;24.718;2022-07-29T06:23:17;99716.78;;;36.96;33.79
11830;BME280;5972;42.134;24.718;2022-07-29T06:25:44;99729.84;;;35.53;36.15
11830;BME280;5972;42.134;24.718;2022-07-29T06:28:11;99728.84;;;34.74;38.84
11830;BME280;5972;42.134;24.718;2022-07-29T06:30:39;99721.94;;;34.27;41.01
11830;BME280;5972;42.134;24.718;2022-07-29T06:33:06;99709.31;;;33.80;42.33
11830;BME280;5972;42.134;24.718;2022-07-29T06:35:33;99731.84;;;33.86;42.03
11830;BME280;5972;42.134;24.718;2022-07-29T06:38:02;99728.28;;;33.59;42.65
11830;BME280;5972;42.134;24.718;2022-07-29T06:40:29;99730.59;;;33.35;43.89
11830;BME280;5972;42.134;24.718;2022-07-29T06:43:13;99727.63;;;32.98;44.50
11830;BME280;5972;42.134;24.718;2022-07-29T06:45:41;99734.84;;;33.05;44.67
11830;BME280;5972;42.134;24.718;2022-07-29T06:48:09;99727.69;;;32.83;45.92
11830;BME280;5972;42.134;24.718;2022-07-29T06:50:36;99724.03;;;32.77;46.04
11830;BME280;5972;42.134;24.718;2022-07-29T06:53:03;99723.06;;;32.60;46.34
11830;BME280;5972;42.134;24.718;2022-07-29T06:55:30;99701.59;;;32.37;47.64
11830;BME280;5972;42.134;24.718;2022-07-29T06:57:57;99689.78;;;32.12;48.71
11830;BME280;5972;42.134;24.718;2022-07-29T07:00:24;99688.13;;;31.71;48.09
11830;BME280;5972;42.134;24.718;2022-07-29T07:02:53;99705.47;;;31.75;47.94
11830;BME280;5972;42.134;24.718;2022-07-29T07:05:20;99721.97;;;31.73;49.42
11830;BME280;5972;42.134;24.718;2022-07-29T07:07:46;99717.13;;;31.29;50.18
11830;BME280;5972;42.134;24.718;2022-07-29T07:10:13;99702.59;;;31.02;52.17
11830;BME280;5972;42.134;24.718;2022-07-29T07:12:40;99715.50;;;30.99;52.61
11830;BME280;5972;42.134;24.718;2022-07-29T07:15:07;99710.66;;;30.85;54.25
11830;BME280;5972;42.134;24.718;2022-07-29T07:17:34;99706.00;;;30.82;52.98
11830;BME280;5972;42.134;24.718;2022-07-29T07:20:05;99707.97;;;30.90;52.88
11830;BME280;5972;42.134;24.718;2022-07-29T07:22:32;99709.25;;;31.04;52.38
11830;BME280;5972;42.134;24.718;2022-07-29T07:24:59;99692.75;;;30.91;53.20
11830;BME280;5972;42.134;24.718;2022-07-29T07:27:26;99708.56;;;30.71;53.57
11830;BME280;5972;42.134;24.718;2022-07-29T07:29:53;99683.31;;;30.65;51.09
11830;BME280;5972;42.134;24.718;2022-07-29T07:32:19;99692.69;;;30.77;51.50
11830;BME280;5972;42.134;24.718;2022-07-29T07:34:46;99688.28;;;30.37;53.16
11830;BME280;5972;42.134;24.718;2022-07-29T07:37:14;99690.16;;;30.40;50.94
11830;BME280;5972;42.134;24.718;2022-07-29T07:39:42;99699.50;;;30.28;52.78
11830;BME280;5972;42.134;24.718;2022-07-29T07:42:09;99698.88;;;30.00;53.16
11830;BME280;5972;42.134;24.718;2022-07-29T07:44:38;99703.25;;;29.83;54.12
11830;BME280;5972;42.134;24.718;2022-07-29T07:47:05;99672.88;;;29.85;54.21
11830;BME280;5972;42.134;24.718;2022-07-29T07:49:32;99687.53;;;30.04;53.66
11830;BME280;5972;42.134;24.718;2022-07-29T07:51:59;99698.25;;;30.05;49.58
11830;BME280;5972;42.134;24.718;2022-07-29T07:54:27;99704.38;;;29.76;51.53
11830;BME280;5972;42.134;24.718;2022-07-29T07:56:54;99699.88;;;29.79;52.87
11830;BME280;5972;42.134;24.718;2022-07-29T07:59:21;99690.50;;;30.00;53.38
11830;BME280;5972;42.134;24.718;2022-07-29T08:01:48;99690.72;;;30.53;49.80
11830;BME280;5972;42.134;24.718;2022-07-29T08:04:15;99692.56;;;30.95;47.76
11830;BME280;5972;42.134;24.718;2022-07-29T08:06:41;99686.91;;;31.04;48.00
11830;BME280;5972;42.134;24.718;2022-07-29T08:09:08;99682.97;;;31.11;47.22
11830;BME280;5972;42.134;24.718;2022-07-29T08:11:36;99685.50;;;31.23;46.30
11830;BME280;5972;42.134;24.718;2022-07-29T08:14:03;99650.63;;;30.95;46.32
11830;BME280;5972;42.134;24.718;2022-07-29T08:16:30;99686.06;;;31.27;42.30
11830;BME280;5972;42.134;24.718;2022-07-29T08:18:57;99676.16;;;30.88;41.51
11830;BME280;5972;42.134;24.718;2022-07-29T08:21:24;99682.50;;;30.88;42.47
11830;BME280;5972;42.134;24.718;2022-07-29T08:23:51;99694.31;;;30.69;42.11
11830;BME280;5972;42.134;24.718;2022-07-29T08:26:40;99692.66;;;31.01;41.84
11830;BME280;5972;42.134;24.718;2022-07-29T08:29:07;99649.16;;;31.09;40.23
11830;BME280;5972;42.134;24.718;2022-07-29T08:31:34;99687.66;;;31.58;38.42
11830;BME280;5972;42.134;24.718;2022-07-29T08:34:01;99657.34;;;31.42;37.34
11830;BME280;5972;42.134;24.718;2022-07-29T08:36:29;99671.59;;;31.44;38.16
11830;BME280;5972;42.134;24.718;2022-07-29T08:38:55;99682.06;;;31.58;38.13
11830;BME280;5972;42.134;24.718;2022-07-29T08:41:23;99661.97;;;31.30;37.26
11830;BME280;5972;42.134;24.718;2022-07-29T08:43:51;99672.50;;;31.20;37.74
11830;BME280;5972;42.134;24.718;2022-07-29T08:46:18;99668.25;;;31.39;37.93
11830;BME280;5972;42.134;24.718;2022-07-29T08:48:46;99647.69;;;31.57;38.30
11830;BME280;5972;42.134;24.718;2022-07-29T08:51:14;99650.38;;;31.81;35.84
11830;BME280;5972;42.134;24.718;2022-07-29T08:53:43;99645.09;;;31.68;35.16
11830;BME280;5972;42.134;24.718;2022-07-29T08:56:12;99659.66;;;31.43;36.37
11830;BME280;5972;42.134;24.718;2022-07-29T08:58:39;99635.75;;;31.42;36.84
11830;BME280;5972;42.134;24.718;2022-07-29T09:01:10;99622.53;;;31.28;37.35
11830;BME280;5972;42.134;24.718;2022-07-29T09:03:39;99643.63;;;31.44;37.66
11830;BME280;5972;42.134;24.718;2022-07-29T09:06:07;99650.03;;;31.59;37.50
11830;BME280;5972;42.134;24.718;2022-07-29T09:08:34;99631.78;;;31.63;36.71
11830;BME280;5972;42.134;24.718;2022-07-29T09:11:01;99650.72;;;31.89;36.80
11830;BME280;5972;42.134;24.718;2022-07-29T09:13:28;99644.41;;;31.73;33.90
11830;BME280;5972;42.134;24.718;2022-07-29T09:15:55;99642.38;;;31.45;36.25
11830;BME280;5972;42.134;24.718;2022-07-29T09:18:42;99637.56;;;31.74;34.46
11830;BME280;5972;42.134;24.718;2022-07-29T09:21:10;99626.19;;;31.49;34.29
11830;BME280;5972;42.134;24.718;2022-07-29T09:24:04;99631.59;;;31.67;34.86
11830;BME280;5972;42.134;24.718;2022-07-29T09:26:33;99622.63;;;31.63;35.15
11830;BME280;5972;42.134;24.718;2022-07-29T09:29:07;99624.88;;;31.59;34.79
11830;BME280;5972;42.134;24.718;2022-07-29T09:31:35;99631.09;;;31.54;35.40
11830;BME280;5972;42.134;24.718;2022-07-29T09:34:05;99633.69;;;31.87;34.54
11830;BME280;5972;42.134;24.718;2022-07-29T09:36:38;99631.03;;;31.98;34.10
11830;BME280;5972;42.134;24.718;2022-07-29T09:39:05;99595.53;;;31.54;32.47
11830;BME280;5972;42.134;24.718;2022-07-29T09:41:45;99628.03;;;32.01;32.72
11830;BME280;5972;42.134;24.718;2022-07-29T09:44:11;99616.81;;;32.36;31.69
11830;BME280;5972;42.134;24.718;2022-07-29T09:46:40;99622.28;;;32.66;31.42
11830;BME280;5972;42.134;24.718;2022-07-29T09:49:11;99617.47;;;32.72;31.58
11830;BME280;5972;42.134;24.718;2022-07-29T09:51:38;99615.81;;;32.59;31.62
11830;BME280;5972;42.134;24.718;2022-07-29T09:54:23;99614.22;;;32.53;30.75
11830;BME280;5972;42.134;24.718;2022-07-29T09:56:51;99591.72;;;32.47;31.64
11830;BME280;5972;42.134;24.718;2022-07-29T09:59:19;99611.94;;;32.77;32.01
11830;BME280;5972;42.134;24.718;2022-07-29T10:01:49;99608.66;;;32.79;31.09
11830;BME280;5972;42.134;24.718;2022-07-29T10:04:18;99604.91;;;32.41;31.42
11830;BME280;5972;42.134;24.718;2022-07-29T10:06:59;99610.34;;;32.50;32.23
11830;BME280;5972;42.134;24.718;2022-07-29T10:09:26;99610.97;;;32.40;29.89
11830;BME280;5972;42.134;24.718;2022-07-29T10:12:09;99608.47;;;32.22;29.02
11830;BME280;5972;42.134;24.718;2022-07-29T10:14:39;99606.22;;;32.46;29.91
11830;BME280;5972;42.134;24.718;2022-07-29T10:17:08;99605.38;;;32.80;30.43
11830;BME280;5972;42.134;24.718;2022-07-29T10:19:37;99603.94;;;32.90;30.38
11830;BME280;5972;42.134;24.718;2022-07-29T10:22:06;99592.91;;;32.81;29.50
11830;BME280;5972;42.134;24.718;2022-07-29T10:24:33;99605.63;;;32.62;30.93
11830;BME280;5972;42.134;24.718;2022-07-29T10:27:02;99597.72;;;32.60;30.73
11830;BME280;5972;42.134;24.718;2022-07-29T10:29:29;99591.59;;;32.77;30.34
11830;BME280;5972;42.134;24.718;2022-07-29T10:35:28;99575.91;;;32.90;30.46
11830;BME280;5972;42.134;24.718;2022-07-29T10:41:07;99590.50;;;33.00;30.68
11830;BME280;5972;42.134;24.718;2022-07-29T10:43:55;99570.25;;;33.42;29.46
11830;BME280;5972;42.134;24.718;2022-07-29T10:46:23;99577.00;;;33.61;29.45
11830;BME280;5972;42.134;24.718;2022-07-29T10:49:09;99562.72;;;33.59;30.55
11830;BME280;5972;42.134;24.718;2022-07-29T10:51:54;99549.91;;;33.53;31.04
11830;BME280;5972;42.134;24.718;2022-07-29T10:54:39;99561.50;;;33.66;30.99
11830;BME280;5972;42.134;24.718;2022-07-29T10:57:18;99547.34;;;33.49;31.02
11830;BME280;5972;42.134;24.718;2022-07-29T10:59:47;99536.59;;;33.42;31.13
11830;BME280;5972;42.134;24.718;2022-07-29T11:02:45;99549.63;;;33.82;31.24
11830;BME280;5972;42.134;24.718;2022-07-29T11:05:18;99551.38;;;33.79;31.10
11830;BME280;5972;42.134;24.718;2022-07-29T11:08:18;99545.25;;;33.75;31.58
11830;BME280;5972;42.134;24.718;2022-07-29T11:10:47;99506.81;;;33.56;31.95
11830;BME280;5972;42.134;24.718;2022-07-29T11:13:45;99534.78;;;33.76;31.28
11830;BME280;5972;42.134;24.718;2022-07-29T11:16:13;99541.31;;;33.67;32.83
11830;BME280;5972;42.134;24.718;2022-07-29T11:21:47;99503.34;;;33.72;32.28
11830;BME280;5972;42.134;24.718;2022-07-29T11:24:18;99526.19;;;33.96;31.75
11830;BME280;5972;42.134;24.718;2022-07-29T11:27:06;99525.66;;;33.87;31.53
11830;BME280;5972;42.134;24.718;2022-07-29T11:29:34;99506.94;;;33.72;32.24
11830;BME280;5972;42.134;24.718;2022-07-29T11:32:08;99521.59;;;33.93;31.76
11830;BME280;5972;42.134;24.718;2022-07-29T11:34:36;99519.88;;;33.64;32.25
11830;BME280;5972;42.134;24.718;2022-07-29T11:37:22;99510.16;;;33.54;32.29
11830;BME280;5972;42.134;24.718;2022-07-29T11:40:14;99501.72;;;33.54;32.14
11830;BME280;5972;42.134;24.718;2022-07-29T11:42:49;99499.75;;;33.66;32.96
11830;BME280;5972;42.134;24.718;2022-07-29T11:45:21;99493.53;;;33.93;33.23
11830;BME280;5972;42.134;24.718;2022-07-29T11:47:54;99490.66;;;33.82;32.05
11830;BME280;5972;42.134;24.718;2022-07-29T11:50:32;99491.50;;;33.99;33.22
11830;BME280;5972;42.134;24.718;2022-07-29T11:53:00;99500.66;;;34.00;32.95
11830;BME280;5972;42.134;24.718;2022-07-29T11:55:30;99488.84;;;33.79;33.26
11830;BME280;5972;42.134;24.718;2022-07-29T11:58:01;99488.84;;;33.79;32.83
11830;BME280;5972;42.134;24.718;2022-07-29T12:00:30;99481.72;;;33.83;32.88
11830;BME280;5972;42.134;24.718;2022-07-29T12:02:59;99474.63;;;33.94;32.30
11830;BME280;5972;42.134;24.718;2022-07-29T12:05:35;99477.72;;;34.07;32.63
11830;BME280;5972;42.134;24.718;2022-07-29T12:08:12;99481.66;;;34.32;31.66
11830;BME280;5972;42.134;24.718;2022-07-29T12:10:42;99475.69;;;34.07;31.79
11830;BME280;5972;42.134;24.718;2022-07-29T12:13:09;99475.41;;;34.00;32.18
11830;BME280;5972;42.134;24.718;2022-07-29T12:15:36;99447.81;;;33.87;32.36
11830;BME280;5972;42.134;24.718;2022-07-29T12:18:14;99473.13;;;33.98;32.56
11830;BME280;5972;42.134;24.718;2022-07-29T12:20:41;99476.41;;;33.91;32.64
11830;BME280;5972;42.134;24.718;2022-07-29T12:23:10;99464.22;;;34.16;32.39
11830;BME280;5972;42.134;24.718;2022-07-29T12:25:40;99453.31;;;34.30;31.70
11830;BME280;5972;42.134;24.718;2022-07-29T12:28:09;99465.81;;;34.34;32.07
11830;BME280;5972;42.134;24.718;2022-07-29T12:30:43;99468.91;;;34.36;31.67
11830;BME280;5972;42.134;24.718;2022-07-29T12:33:18;99462.91;;;34.06;31.09
11830;BME280;5972;42.134;24.718;2022-07-29T12:35:48;99462.94;;;34.12;31.41
11830;BME280;5972;42.134;24.718;2022-07-29T12:38:16;99458.34;;;34.09;31.49
11830;BME280;5972;42.134;24.718;2022-07-29T12:40:46;99457.63;;;34.19;30.56
11830;BME280;5972;42.134;24.718;2022-07-29T12:43:14;99450.19;;;34.16;30.38
11830;BME280;5972;42.134;24.718;2022-07-29T12:45:44;99442.56;;;34.34;30.85
11830;BME280;5972;42.134;24.718;2022-07-29T12:48:11;99437.94;;;34.14;30.54
11830;BME280;5972;42.134;24.718;2022-07-29T12:50:56;99432.28;;;34.03;31.09
11830;BME280;5972;42.134;24.718;2022-07-29T12:53:23;99437.22;;;34.25;31.25
11830;BME280;5972;42.134;24.718;2022-07-29T12:55:53;99413.69;;;34.22;31.75
11830;BME280;5972;42.134;24.718;2022-07-29T12:58:32;99427.00;;;34.27;31.12
11830;BME280;5972;42.134;24.718;2022-07-29T13:01:10;99429.56;;;34.31;31.20
11830;BME280;5972;42.134;24.718;2022-07-29T13:03:49;99429.28;;;34.29;31.12
11830;BME280;5972;42.134;24.718;2022-07-29T13:06:34;99415.72;;;34.10;32.23
11830;BME280;5972;42.134;24.718;2022-07-29T13:09:07;99421.31;;;33.99;31.73
11830;BME280;5972;42.134;24.718;2022-07-29T13:11:37;99411.09;;;33.96;31.92
11830;BME280;5972;42.134;24.718;2022-07-29T13:14:05;99418.75;;;34.07;31.76
11830;BME280;5972;42.134;24.718;2022-07-29T13:16:34;99416.47;;;34.11;32.24
11830;BME280;5972;42.134;24.718;2022-07-29T13:19:05;99405.75;;;34.09;32.09
11830;BME280;5972;42.134;24.718;2022-07-29T13:21:33;99404.75;;;34.18;31.99